createdAt,value
2018-09-29T00:00:00.648Z,7.70
2018-09-29T00:03:25.076Z,7.70
2018-09-29T00:06:49.569Z,7.60
2018-09-29T00:10:14.092Z,7.60
2018-09-29T00:13:38.482Z,7.50
2018-09-29T00:17:03.021Z,7.40
2018-09-29T00:20:27.465Z,7.30
2018-09-29T00:23:51.961Z,7.30
2018-09-29T00:27:16.369Z,7.30
2018-09-29T00:30:40.836Z,7.30
2018-09-29T00:34:05.441Z,7.20
2018-09-29T00:37:30.120Z,7.20
2018-09-29T00:40:54.523Z,7.20
2018-09-29T00:44:18.985Z,7.10
2018-09-29T00:47:43.409Z,7.00
2018-09-29T00:51:07.914Z,7.00
2018-09-29T00:54:32.336Z,6.90
2018-09-29T00:57:56.903Z,6.80
2018-09-29T01:01:21.353Z,6.80
2018-09-29T01:04:45.796Z,6.80
2018-09-29T01:08:10.264Z,6.70
2018-09-29T01:11:34.679Z,6.60
2018-09-29T01:14:59.601Z,6.60
2018-09-29T01:18:24.110Z,6.50
2018-09-29T01:21:48.549Z,6.50
2018-09-29T01:25:12.981Z,6.50
2018-09-29T01:28:37.973Z,6.50
2018-09-29T01:32:02.481Z,6.50
2018-09-29T01:35:26.949Z,6.40
2018-09-29T01:38:51.447Z,6.40
2018-09-29T01:42:15.884Z,6.30
2018-09-29T01:45:40.356Z,6.30
2018-09-29T01:49:04.932Z,6.30
2018-09-29T01:52:29.443Z,6.20
2018-09-29T01:55:53.908Z,6.20
2018-09-29T01:59:18.361Z,6.20
2018-09-29T02:02:42.797Z,6.20
2018-09-29T02:06:07.393Z,6.10
2018-09-29T02:09:31.874Z,6.10
2018-09-29T02:12:56.288Z,6.10
2018-09-29T02:16:20.760Z,6.10
2018-09-29T02:19:45.255Z,6.00
2018-09-29T02:23:09.971Z,6.00
2018-09-29T02:26:34.411Z,5.90
2018-09-29T02:29:58.881Z,5.90
2018-09-29T02:33:23.370Z,5.80
2018-09-29T02:36:47.894Z,5.80
2018-09-29T02:40:12.355Z,5.70
2018-09-29T02:43:36.820Z,5.80
2018-09-29T02:47:01.278Z,5.70
2018-09-29T02:50:25.721Z,5.70
2018-09-29T02:53:50.396Z,5.60
2018-09-29T02:57:14.904Z,5.60
2018-09-29T03:00:39.333Z,5.60
2018-09-29T03:04:03.858Z,5.60
2018-09-29T03:07:28.274Z,5.60
2018-09-29T03:10:52.681Z,5.50
2018-09-29T03:14:17.085Z,5.50
2018-09-29T03:17:41.543Z,5.40
2018-09-29T03:21:05.976Z,5.40
2018-09-29T03:24:30.428Z,5.40
2018-09-29T03:27:54.868Z,5.40
2018-09-29T03:31:19.278Z,5.30
2018-09-29T03:34:43.744Z,5.20
2018-09-29T03:38:08.544Z,5.20
2018-09-29T03:41:32.947Z,5.20
2018-09-29T03:44:57.458Z,5.20
2018-09-29T03:48:21.941Z,5.20
2018-09-29T03:51:46.447Z,5.20
2018-09-29T03:55:10.899Z,5.10
2018-09-29T03:58:35.355Z,5.10
2018-09-29T04:01:59.784Z,5.00
2018-09-29T04:05:24.209Z,5.00
2018-09-29T04:08:48.711Z,5.00
2018-09-29T04:12:13.144Z,5.00
2018-09-29T04:15:38.077Z,4.90
2018-09-29T04:19:02.520Z,4.90
2018-09-29T04:22:26.998Z,4.90
2018-09-29T04:25:51.705Z,4.90
2018-09-29T04:29:17.421Z,4.80
2018-09-29T04:32:41.941Z,4.80
2018-09-29T04:36:07.585Z,4.80
2018-09-29T04:39:37.265Z,4.70
2018-09-29T04:43:01.849Z,4.70
2018-09-29T04:46:26.568Z,4.60
2018-09-29T04:49:51.144Z,4.60
2018-09-29T04:53:15.558Z,4.60
2018-09-29T04:56:40.100Z,4.50
2018-09-29T05:00:05.007Z,4.60
2018-09-29T05:03:29.438Z,4.50
2018-09-29T05:06:53.937Z,4.50
2018-09-29T05:10:18.398Z,4.50
2018-09-29T05:13:42.810Z,4.50
2018-09-29T05:17:07.322Z,4.50
2018-09-29T05:20:31.912Z,4.50
2018-09-29T05:23:56.345Z,4.50
2018-09-29T05:27:21.166Z,4.40
2018-09-29T05:30:45.674Z,4.40
2018-09-29T05:34:10.076Z,4.40
2018-09-29T05:37:34.562Z,4.40
2018-09-29T05:40:59.054Z,4.50
2018-09-29T05:44:42.915Z,4.50
2018-09-29T05:48:07.520Z,4.50
2018-09-29T05:51:32.292Z,4.60
2018-09-29T05:54:56.770Z,4.60
2018-09-29T05:58:21.201Z,4.60
2018-09-29T06:01:45.688Z,4.60
2018-09-29T06:05:10.235Z,4.70
2018-09-29T06:08:34.754Z,4.70
2018-09-29T06:11:59.284Z,4.80
2018-09-29T06:15:23.774Z,4.80
2018-09-29T06:18:48.176Z,4.90
2018-09-29T06:22:12.633Z,5.00
2018-09-29T06:25:37.057Z,5.10
2018-09-29T06:29:01.481Z,5.20
2018-09-29T06:32:25.940Z,5.30
2018-09-29T06:35:51.479Z,5.50
2018-09-29T06:39:15.887Z,5.70
2018-09-29T06:42:40.442Z,5.80
2018-09-29T06:46:05.044Z,5.90
2018-09-29T06:49:29.533Z,6.00
2018-09-29T06:52:54.142Z,6.10
2018-09-29T06:56:18.556Z,6.20
2018-09-29T06:59:43.106Z,6.40
2018-09-29T07:03:07.637Z,6.50
2018-09-29T07:06:32.025Z,6.70
2018-09-29T07:09:56.503Z,6.80
2018-09-29T07:13:20.982Z,6.90
2018-09-29T07:16:45.444Z,7.00
2018-09-29T07:20:09.826Z,7.20
2018-09-29T07:23:34.292Z,7.30
2018-09-29T07:26:58.738Z,7.40
2018-09-29T07:30:23.172Z,7.60
2018-09-29T07:33:47.630Z,7.70
2018-09-29T07:37:12.084Z,7.90
2018-09-29T07:40:36.675Z,8.00
2018-09-29T07:44:01.255Z,8.10
2018-09-29T07:47:25.703Z,8.30
2018-09-29T07:50:51.188Z,8.40
2018-09-29T07:54:15.593Z,8.50
2018-09-29T07:57:40.050Z,8.70
2018-09-29T08:01:04.464Z,8.80
2018-09-29T08:04:28.898Z,8.90
2018-09-29T08:07:53.320Z,9.10
2018-09-29T08:11:17.833Z,9.20
2018-09-29T08:14:42.352Z,9.30
2018-09-29T08:18:06.781Z,9.50
2018-09-29T08:21:31.369Z,9.60
2018-09-29T08:24:55.796Z,9.70
2018-09-29T08:28:20.340Z,9.90
2018-09-29T08:31:44.852Z,10.10
2018-09-29T08:35:09.302Z,10.30
2018-09-29T08:38:33.916Z,10.60
2018-09-29T08:41:58.420Z,11.10
2018-09-29T08:45:22.858Z,11.20
2018-09-29T08:48:47.335Z,11.40
2018-09-29T08:52:11.833Z,11.60
2018-09-29T08:55:36.258Z,11.80
2018-09-29T08:59:00.729Z,11.90
2018-09-29T09:02:25.144Z,12.00
2018-09-29T09:05:49.568Z,12.20
2018-09-29T09:09:14.049Z,12.50
2018-09-29T09:12:38.498Z,12.80
2018-09-29T09:16:02.908Z,13.10
2018-09-29T09:19:27.332Z,13.60
2018-09-29T09:22:51.865Z,14.00
2018-09-29T09:26:16.220Z,14.30
2018-09-29T09:29:40.656Z,14.60
2018-09-29T09:33:05.087Z,15.10
2018-09-29T09:36:29.542Z,15.80
2018-09-29T09:39:53.986Z,16.60
2018-09-29T09:43:18.433Z,17.60
2018-09-29T09:46:42.856Z,18.40
2018-09-29T09:50:07.323Z,19.30
2018-09-29T09:53:31.726Z,20.10
2018-09-29T09:56:56.171Z,20.90
2018-09-29T10:00:22.099Z,21.20
2018-09-29T10:03:46.536Z,21.20
2018-09-29T10:07:10.972Z,21.70
2018-09-29T10:10:35.402Z,21.70
2018-09-29T10:13:59.806Z,21.80
2018-09-29T10:17:24.265Z,22.70
2018-09-29T10:20:48.619Z,22.90
2018-09-29T10:24:13.052Z,23.10
2018-09-29T10:27:37.511Z,23.80
2018-09-29T10:31:02.353Z,23.90
2018-09-29T10:34:26.795Z,23.70
2018-09-29T10:37:51.269Z,23.60
2018-09-29T10:41:15.684Z,23.30
2018-09-29T10:44:40.257Z,23.10
2018-09-29T10:48:04.706Z,23.50
2018-09-29T10:51:29.193Z,23.60
2018-09-29T10:54:53.742Z,23.30
2018-09-29T10:58:18.272Z,23.10
2018-09-29T11:01:42.833Z,23.10
2018-09-29T11:05:07.487Z,23.50
2018-09-29T11:08:31.887Z,24.30
2018-09-29T11:11:56.374Z,24.70
2018-09-29T11:15:20.851Z,25.20
2018-09-29T11:18:45.253Z,25.40
2018-09-29T11:22:09.727Z,25.90
2018-09-29T11:25:34.156Z,26.30
2018-09-29T11:28:58.605Z,26.70
2018-09-29T11:32:23.055Z,27.40
2018-09-29T11:35:47.621Z,27.40
2018-09-29T11:39:12.999Z,26.70
2018-09-29T11:42:37.413Z,26.50
2018-09-29T11:46:01.819Z,26.30
2018-09-29T11:49:26.348Z,26.70
2018-09-29T11:52:50.783Z,27.20
2018-09-29T11:56:15.370Z,27.50
2018-09-29T11:59:39.798Z,27.20
2018-09-29T12:03:04.277Z,28.10
2018-09-29T12:06:28.885Z,27.60
2018-09-29T12:09:53.344Z,27.70
2018-09-29T12:13:18.620Z,28.20
2018-09-29T12:16:43.273Z,29.10
2018-09-29T12:20:07.786Z,28.60
2018-09-29T12:23:32.280Z,28.70
2018-09-29T12:26:56.704Z,28.50
2018-09-29T12:30:21.145Z,29.00
2018-09-29T12:33:45.605Z,29.20
2018-09-29T12:37:10.195Z,29.40
2018-09-29T12:40:34.972Z,29.10
2018-09-29T12:43:59.394Z,29.80
2018-09-29T12:47:23.922Z,30.30
2018-09-29T12:50:48.442Z,30.30
2018-09-29T12:54:12.859Z,30.00
2018-09-29T12:57:37.426Z,30.50
2018-09-29T13:01:01.997Z,31.10
2018-09-29T13:04:26.611Z,31.10
2018-09-29T13:07:51.041Z,31.30
2018-09-29T13:11:15.557Z,30.90
2018-09-29T13:14:39.980Z,29.60
2018-09-29T13:18:04.471Z,27.80
2018-09-29T13:21:28.948Z,26.60
2018-09-29T13:24:53.387Z,25.70
2018-09-29T13:28:17.848Z,25.00
2018-09-29T13:31:42.343Z,24.60
2018-09-29T13:35:06.832Z,23.90
2018-09-29T13:38:31.247Z,23.60
2018-09-29T13:41:55.720Z,23.80
2018-09-29T13:45:20.145Z,24.50
2018-09-29T13:48:44.512Z,26.00
2018-09-29T13:52:08.936Z,27.40
2018-09-29T13:55:33.368Z,28.40
2018-09-29T13:58:57.839Z,29.50
2018-09-29T14:02:22.426Z,29.90
2018-09-29T14:05:46.736Z,31.00
2018-09-29T14:09:11.474Z,31.80
2018-09-29T14:12:35.970Z,32.40
2018-09-29T14:16:00.420Z,33.10
2018-09-29T14:19:24.898Z,33.70
2018-09-29T14:22:49.367Z,32.90
2018-09-29T14:26:13.820Z,34.20
2018-09-29T14:29:39.121Z,34.50
2018-09-29T14:33:03.577Z,35.60
2018-09-29T14:36:27.982Z,36.00
2018-09-29T14:39:52.392Z,35.90
2018-09-29T14:43:16.872Z,35.40
2018-09-29T14:46:41.318Z,35.80
2018-09-29T14:50:05.892Z,36.20
2018-09-29T14:53:30.333Z,36.30
2018-09-29T14:56:54.750Z,36.00
2018-09-29T15:00:19.252Z,35.60
2018-09-29T15:03:43.710Z,36.60
2018-09-29T15:07:08.162Z,36.30
2018-09-29T15:10:33.044Z,37.30
2018-09-29T15:13:57.565Z,36.30
2018-09-29T15:17:22.088Z,36.80
2018-09-29T15:20:46.551Z,36.70
2018-09-29T15:24:11.115Z,36.80
2018-09-29T15:27:35.651Z,37.00
2018-09-29T15:31:00.217Z,37.10
2018-09-29T15:34:24.735Z,36.90
2018-09-29T15:37:49.234Z,36.40
2018-09-29T15:41:13.676Z,36.30
2018-09-29T15:44:38.281Z,36.30
2018-09-29T15:48:02.851Z,35.90
2018-09-29T15:51:27.363Z,35.30
2018-09-29T15:54:51.862Z,35.00
2018-09-29T15:58:16.445Z,33.90
2018-09-29T16:01:40.970Z,32.00
2018-09-29T16:05:05.779Z,29.70
2018-09-29T16:08:30.330Z,27.80
2018-09-29T16:11:54.791Z,25.60
2018-09-29T16:15:19.237Z,24.20
2018-09-29T16:18:43.664Z,22.90
2018-09-29T16:22:08.179Z,21.90
2018-09-29T16:25:32.815Z,21.30
2018-09-29T16:28:57.305Z,20.70
2018-09-29T16:32:21.738Z,20.30
2018-09-29T16:35:46.225Z,19.40
2018-09-29T16:39:12.791Z,19.00
2018-09-29T16:42:37.285Z,18.90
2018-09-29T16:46:01.860Z,18.30
2018-09-29T16:49:26.419Z,18.00
2018-09-29T16:52:51.253Z,17.70
2018-09-29T16:56:16.012Z,17.40
2018-09-29T16:59:40.937Z,17.30
2018-09-29T17:03:06.364Z,17.20
2018-09-29T17:06:31.338Z,17.00
2018-09-29T17:09:55.971Z,16.70
2018-09-29T17:13:21.051Z,16.60
2018-09-29T17:16:45.912Z,16.40
2018-09-29T17:20:10.628Z,16.30
2018-09-29T17:23:35.277Z,16.00
2018-09-29T17:26:59.937Z,15.50
2018-09-29T17:30:24.464Z,15.00
2018-09-29T17:33:48.994Z,14.80
2018-09-29T17:37:13.499Z,14.60
2018-09-29T17:40:37.937Z,14.40
2018-09-29T17:44:02.679Z,14.30
2018-09-29T17:47:27.648Z,14.00
2018-09-29T17:50:52.178Z,13.80
2018-09-29T17:54:16.649Z,13.70
2018-09-29T17:57:41.058Z,13.70
2018-09-29T18:01:05.568Z,13.80
2018-09-29T18:04:30.094Z,13.70
2018-09-29T18:07:54.513Z,13.60
2018-09-29T18:11:18.922Z,13.50
2018-09-29T18:14:43.377Z,13.50
2018-09-29T18:18:08.769Z,13.40
2018-09-29T18:21:33.242Z,13.30
2018-09-29T18:24:59.440Z,13.20
2018-09-29T18:28:23.884Z,13.00
2018-09-29T18:31:48.409Z,13.00
2018-09-29T18:35:12.925Z,12.80
2018-09-29T18:38:38.022Z,12.60
2018-09-29T18:42:02.477Z,12.60
2018-09-29T18:45:26.920Z,12.50
2018-09-29T18:48:51.433Z,12.40
2018-09-29T18:52:17.690Z,12.30
2018-09-29T18:55:42.876Z,12.10
2018-09-29T18:59:07.385Z,11.90
2018-09-29T19:02:31.814Z,11.80
2018-09-29T19:05:56.344Z,11.60
2018-09-29T19:09:20.777Z,11.40
2018-09-29T19:12:47.208Z,11.30
2018-09-29T19:16:12.432Z,11.20
2018-09-29T19:19:39.446Z,11.10
2018-09-29T19:23:04.217Z,11.00
2018-09-29T19:26:28.988Z,11.00
2018-09-29T19:29:54.757Z,10.90
2018-09-29T19:33:19.774Z,10.90
2018-09-29T19:36:45.073Z,10.90
2018-09-29T19:40:10.482Z,10.80
2018-09-29T19:43:36.663Z,10.60
2018-09-29T19:47:02.423Z,10.60
2018-09-29T19:50:28.633Z,10.50
2018-09-29T19:53:53.159Z,10.40
2018-09-29T19:57:25.498Z,10.40
2018-09-29T20:00:50.171Z,10.20
2018-09-29T20:04:15.188Z,10.20
2018-09-29T20:07:40.690Z,10.20
2018-09-29T20:11:07.199Z,10.20
2018-09-29T20:14:32.743Z,10.10
2018-09-29T20:17:59.250Z,10.00
2018-09-29T20:21:25.353Z,9.90
2018-09-29T20:24:50.113Z,9.90
2018-09-29T20:28:15.101Z,9.80
2018-09-29T20:31:41.358Z,9.70
2018-09-29T20:35:06.869Z,9.60
2018-09-29T20:38:31.327Z,9.50
2018-09-29T20:41:56.689Z,9.50
2018-09-29T20:45:21.979Z,9.40
2018-09-29T20:48:46.623Z,9.40
2018-09-29T20:52:12.655Z,9.30
2018-09-29T20:55:39.026Z,9.30
2018-09-29T20:59:04.764Z,9.20
2018-09-29T21:02:30.853Z,9.20
2018-09-29T21:05:56.275Z,9.20
2018-09-29T21:09:21.657Z,9.10
2018-09-29T21:12:46.216Z,9.00
2018-09-29T21:16:12.786Z,9.00
2018-09-29T21:19:38.068Z,8.90
2018-09-29T21:23:02.601Z,8.90
2018-09-29T21:26:27.103Z,8.80
2018-09-29T21:29:51.585Z,8.80
2018-09-29T21:33:16.010Z,8.80
2018-09-29T21:36:40.441Z,8.80
2018-09-29T21:40:04.960Z,8.70
2018-09-29T21:43:29.441Z,8.60
2018-09-29T21:46:53.888Z,8.50
2018-09-29T21:50:18.320Z,8.60
2018-09-29T21:53:43.147Z,8.40
2018-09-29T21:57:07.890Z,8.40
2018-09-29T22:00:37.605Z,8.30
2018-09-29T22:04:03.388Z,8.30
2018-09-29T22:07:27.914Z,8.30
2018-09-29T22:10:52.338Z,8.20
2018-09-29T22:14:16.774Z,8.10
2018-09-29T22:17:41.187Z,8.10
2018-09-29T22:21:05.766Z,8.00
2018-09-29T22:24:30.539Z,8.00
2018-09-29T22:27:55.285Z,8.00
2018-09-29T22:31:19.696Z,8.00
2018-09-29T22:34:44.178Z,7.90
2018-09-29T22:38:08.764Z,7.80
2018-09-29T22:41:33.237Z,7.70
2018-09-29T22:44:57.933Z,7.70
2018-09-29T22:48:22.373Z,7.70
2018-09-29T22:51:46.740Z,7.70
2018-09-29T22:55:11.242Z,7.60
2018-09-29T22:58:35.718Z,7.60
2018-09-29T23:02:00.166Z,7.50
2018-09-29T23:05:24.580Z,7.50
2018-09-29T23:08:49.019Z,7.50
2018-09-29T23:12:13.486Z,7.50
2018-09-29T23:15:38.002Z,7.40
2018-09-29T23:19:02.502Z,7.30
2018-09-29T23:22:26.930Z,7.30
2018-09-29T23:25:51.376Z,7.30
2018-09-29T23:29:15.833Z,7.20
2018-09-29T23:32:40.338Z,7.20
2018-09-29T23:36:04.967Z,7.20
2018-09-29T23:39:29.406Z,7.20
2018-09-29T23:42:54.041Z,7.10
2018-09-29T23:46:18.434Z,7.20
2018-09-29T23:49:42.874Z,7.10
2018-09-29T23:53:07.881Z,7.10
2018-09-29T23:56:32.334Z,7.10
2018-09-29T23:59:56.751Z,7.10
